Time;durP1;ratioP1;P1;durP2;ratioP2;P2;SDS_P1;SDS_P2;PMS_P1;PMS_P2;Temp;Humidity;BMP_temperature;BMP_pressure;BME280_temperature;BME280_humidity;BME280_pressure;Samples;Min_cycle;Max_cycle;Signal;HPM_P1;HPM_P2
2022/01/01 00:00:50;;;;;;;1.75;1.42;;;;;;;-11.95;92.00;100289.44;5015647;28;20054;-75
2022/01/01 00:03:17;;;;;;;5.53;1.50;;;;;;;-11.84;92.08;100295.59;5015482;28;20053;-75
2022/01/01 00:05:44;;;;;;;2.08;1.92;;;;;;;-12.08;92.54;100306.63;5015316;28;20074;-74
2022/01/01 00:08:12;;;;;;;2.42;2.10;;;;;;;-12.02;92.47;100305.97;5015400;28;20484;-74
2022/01/01 00:10:39;;;;;;;2.13;1.75;;;;;;;-12.17;91.15;100303.88;5015569;28;20403;-74
2022/01/01 00:13:05;;;;;;;2.10;1.83;;;;;;;-12.32;92.31;100323.47;5015563;28;20046;-74
2022/01/01 00:15:34;;;;;;;2.00;1.77;;;;;;;-12.22;92.17;100327.97;5015311;28;20045;-75
2022/01/01 00:18:01;;;;;;;1.88;1.63;;;;;;;-12.23;92.40;100333.75;5015438;28;20050;-75
2022/01/01 00:20:28;;;;;;;2.17;1.67;;;;;;;-12.43;93.02;100334.81;5014975;28;20053;-74
2022/01/01 00:22:54;;;;;;;2.83;1.65;;;;;;;-12.21;91.76;100333.81;5015179;28;20061;-74
2022/01/01 00:25:21;;;;;;;1.42;1.35;;;;;;;-12.31;91.30;100342.72;5015163;28;20048;-74
2022/01/01 00:27:48;;;;;;;2.28;1.85;;;;;;;-12.50;92.36;100339.63;5014739;28;20052;-74
2022/01/01 00:30:15;;;;;;;1.98;1.75;;;;;;;-12.33;91.95;100344.31;5015036;28;20050;-74
2022/01/01 00:32:43;;;;;;;1.67;1.58;;;;;;;-12.46;91.65;100352.25;5014047;28;20050;-74
2022/01/01 00:35:10;;;;;;;2.20;1.63;;;;;;;-12.58;92.13;100348.56;5015005;28;20046;-74
2022/01/01 00:37:37;;;;;;;1.70;1.55;;;;;;;-12.60;92.16;100351.84;5015432;28;20452;-74
2022/01/01 00:40:05;;;;;;;1.65;1.55;;;;;;;-12.64;92.35;100352.53;5014922;28;20057;-74
2022/01/01 00:42:32;;;;;;;3.00;1.42;;;;;;;-12.61;92.23;100355.13;5014962;28;20054;-74
2022/01/01 00:44:58;;;;;;;2.05;1.88;;;;;;;-12.69;92.15;100361.56;5014771;28;20396;-74
2022/01/01 00:47:25;;;;;;;2.45;1.60;;;;;;;-12.63;91.58;100366.78;5014644;28;20057;-74
2022/01/01 00:49:54;;;;;;;1.50;1.13;;;;;;;-12.64;91.42;100367.56;5014788;28;20054;-74
2022/01/01 00:52:20;;;;;;;1.73;1.50;;;;;;;-12.69;91.73;100382.44;5014785;28;20077;-74
2022/01/01 00:54:47;;;;;;;1.25;1.13;;;;;;;-12.66;91.61;100382.56;5014617;28;20049;-74
2022/01/01 00:57:14;;;;;;;2.40;1.98;;;;;;;-12.79;91.85;100385.44;5014539;28;20050;-74
2022/01/01 00:59:41;;;;;;;1.58;1.48;;;;;;;-12.76;92.22;100390.59;5014420;28;20046;-74
2022/01/01 01:02:08;;;;;;;1.23;1.13;;;;;;;-12.84;91.81;100389.47;5014337;28;20054;-74
2022/01/01 01:04:35;;;;;;;2.15;1.65;;;;;;;-12.80;91.78;100396.28;5014276;28;20057;-74
2022/01/01 01:07:03;;;;;;;1.30;1.25;;;;;;;-12.78;91.21;100394.69;5014396;28;20050;-74
2022/01/01 01:09:30;;;;;;;1.48;1.38;;;;;;;-12.87;92.87;100397.72;5014387;28;20050;-75
2022/01/01 01:11:57;;;;;;;3.50;1.60;;;;;;;-12.76;91.49;100400.63;5014319;28;20049;-74
2022/01/01 01:14:27;;;;;;;1.10;1.10;;;;;;;-12.75;91.46;100404.81;5014182;28;20473;-74
2022/01/01 01:16:55;;;;;;;1.88;1.50;;;;;;;-12.76;91.64;100408.13;5014007;28;20046;-74
2022/01/01 01:19:22;;;;;;;1.00;1.00;;;;;;;-12.74;91.27;100409.88;5014047;28;20046;-74
2022/01/01 01:21:51;;;;;;;2.88;1.88;;;;;;;-12.91;91.72;100410.97;5013904;28;20045;-74
2022/01/01 01:24:23;;;;;;;1.40;1.35;;;;;;;-12.87;91.27;100411.91;5013992;28;20115;-74
2022/01/01 01:26:50;;;;;;;1.63;1.52;;;;;;;-12.95;91.87;100416.66;5013734;28;20046;-74
2022/01/01 01:29:19;;;;;;;1.50;1.40;;;;;;;-12.85;91.73;100420.34;5013849;28;20049;-73
2022/01/01 01:31:46;;;;;;;1.95;1.70;;;;;;;-12.91;90.52;100427.66;5013914;28;20049;-74
2022/01/01 01:34:12;;;;;;;1.40;1.30;;;;;;;-12.86;91.38;100438.69;5013895;28;20077;-74
2022/01/01 01:36:39;;;;;;;2.33;1.60;;;;;;;-12.81;90.39;100438.03;5014176;28;20096;-75
2022/01/01 01:39:06;;;;;;;2.75;1.20;;;;;;;-12.97;91.80;100436.66;5013498;28;20401;-74
2022/01/01 01:41:35;;;;;;;1.40;1.30;;;;;;;-13.08;91.90;100449.59;5013916;28;20057;-74
2022/01/01 01:44:03;;;;;;;1.75;1.65;;;;;;;-13.11;91.91;100449.50;5013620;28;20389;-75
2022/01/01 01:46:30;;;;;;;5.80;1.63;;;;;;;-13.01;91.07;100444.00;5013773;28;20054;-74
2022/01/01 01:48:57;;;;;;;;;;;;;;;-13.20;91.47;100448.38;5013828;28;20070;-74
2022/01/01 01:51:24;;;;;;;1.50;1.40;;;;;;;-13.13;91.55;100459.44;5013593;28;19944;-75
2022/01/01 01:53:52;;;;;;;1.30;1.20;;;;;;;-13.07;90.86;100466.31;5013543;28;20050;-74
2022/01/01 01:56:18;;;;;;;1.95;1.58;;;;;;;-13.14;91.23;100469.44;5013421;28;20390;-74
2022/01/01 01:58:47;;;;;;;1.70;1.13;;;;;;;-13.07;90.63;100472.19;5013355;28;20508;-74
2022/01/01 02:01:24;;;;;;;1.55;1.45;;;;;;;-13.20;91.74;100475.06;5013428;28;20050;-74
2022/01/01 02:03:54;;;;;;;2.53;1.98;;;;;;;-13.21;91.51;100484.22;5013351;28;20050;-75
2022/01/01 02:06:22;;;;;;;1.55;1.45;;;;;;;-13.23;91.43;100485.81;5013117;28;20050;-74
2022/01/01 02:08:50;;;;;;;1.25;1.20;;;;;;;-13.16;91.90;100494.41;5012963;28;20046;-75
2022/01/01 02:11:19;;;;;;;1.23;1.23;;;;;;;-13.08;91.72;100487.16;5013520;28;20128;-75
2022/01/01 02:14:02;;;;;;;1.70;1.60;;;;;;;-13.24;91.30;100498.28;5013097;28;20488;-74
2022/01/01 02:16:49;;;;;;;1.20;1.20;;;;;;;-13.22;91.33;100500.03;5012998;28;20530;-74
2022/01/01 02:19:16;;;;;;;1.20;1.20;;;;;;;-13.30;92.13;100503.09;5013027;28;20053;-74
2022/01/01 02:21:44;;;;;;;4.95;1.85;;;;;;;-13.32;91.90;100509.69;5012843;28;20060;-74
2022/01/01 02:24:11;;;;;;;2.67;1.55;;;;;;;-13.22;91.67;100511.72;5013022;28;20050;-74
2022/01/01 02:26:38;;;;;;;1.80;1.70;;;;;;;-13.10;91.40;100522.19;5012905;28;20042;-74
2022/01/01 02:29:04;;;;;;;0.90;0.90;;;;;;;-13.09;91.05;100516.38;5012854;28;20050;-74
2022/01/01 02:31:34;;;;;;;1.55;1.35;;;;;;;-13.44;91.18;100515.94;5012919;28;20489;-75
2022/01/01 02:34:06;;;;;;;1.10;1.10;;;;;;;-13.26;91.50;100519.94;5012885;28;20046;-74
2022/01/01 02:36:34;;;;;;;1.60;1.50;;;;;;;-13.41;91.93;100518.56;5012792;28;20412;-74
2022/01/01 02:39:10;;;;;;;1.23;1.23;;;;;;;-13.36;92.20;100521.22;5025474;22;20060;-64
2022/01/01 02:41:37;;;;;;;1.73;1.58;;;;;;;-13.32;90.89;100528.06;5012688;28;20053;-65
2022/01/01 02:44:05;;;;;;;2.22;1.42;;;;;;;-13.45;90.75;100533.41;5012768;28;20046;-66
2022/01/01 02:46:32;;;;;;;3.33;1.45;;;;;;;-13.60;92.01;100534.53;5013183;28;20140;-67
2022/01/01 02:49:00;;;;;;;1.67;1.58;;;;;;;-13.58;91.61;100543.75;5012594;28;20056;-64
2022/01/01 02:51:27;;;;;;;2.78;1.52;;;;;;;-13.54;91.01;100543.91;5012822;28;20050;-65
2022/01/01 02:53:54;;;;;;;1.42;1.33;;;;;;;-13.58;91.57;100542.09;5012537;28;20057;-69
2022/01/01 02:56:22;;;;;;;1.70;1.60;;;;;;;-13.64;91.27;100547.72;5012113;28;20495;-67
2022/01/01 02:58:49;;;;;;;1.45;1.20;;;;;;;-13.67;91.64;100552.59;5012512;28;20050;-67
2022/01/01 03:01:16;;;;;;;1.50;1.40;;;;;;;-13.61;90.53;100549.50;5012740;28;20053;-67
2022/01/01 03:03:43;;;;;;;1.48;1.38;;;;;;;-13.65;91.47;100555.16;5012373;28;20057;-69
2022/01/01 03:06:11;;;;;;;1.40;1.30;;;;;;;-13.70;91.43;100561.63;5012390;28;20050;-67
2022/01/01 03:08:38;;;;;;;1.50;1.40;;;;;;;-13.77;90.85;100565.53;5012331;28;20050;-64
2022/01/01 03:11:05;;;;;;;1.42;1.33;;;;;;;-13.77;90.77;100574.69;5012280;28;20046;-64
2022/01/01 03:13:34;;;;;;;3.17;1.45;;;;;;;-13.84;91.56;100574.44;5012274;28;20670;-69
2022/01/01 03:16:01;;;;;;;1.60;1.50;;;;;;;-13.77;90.70;100569.69;5012334;28;20049;-69
2022/01/01 03:18:27;;;;;;;1.65;1.55;;;;;;;-13.89;90.73;100568.41;5012424;28;20045;-69
2022/01/01 03:20:54;;;;;;;1.88;1.67;;;;;;;-13.90;90.32;100569.19;5012334;28;20042;-66
2022/01/01 03:23:21;;;;;;;1.48;1.38;;;;;;;-13.93;90.57;100575.72;5012473;28;20053;-68
2022/01/01 03:25:48;;;;;;;1.10;1.10;;;;;;;-13.96;90.87;100586.44;5012263;28;20046;-67
2022/01/01 03:28:15;;;;;;;1.50;1.40;;;;;;;-14.02;90.92;100583.72;5012364;28;20050;-69
2022/01/01 03:30:43;;;;;;;2.00;1.80;;;;;;;-14.05;90.73;100594.44;5012083;28;20050;-64
2022/01/01 03:33:10;;;;;;;1.60;1.50;;;;;;;-14.17;91.44;100603.06;5012067;28;20053;-66
2022/01/01 03:35:37;;;;;;;1.70;1.38;;;;;;;-14.18;91.52;100606.34;5012203;28;20049;-66
2022/01/01 03:38:04;;;;;;;1.60;1.50;;;;;;;-13.98;90.68;100608.03;5012660;28;20061;-65
2022/01/01 03:40:31;;;;;;;;;;;;;;;-14.03;90.69;100609.47;5012299;28;20053;-64
2022/01/01 03:42:58;;;;;;;2.15;1.90;;;;;;;-13.89;89.94;100615.06;5011939;28;20272;-64
2022/01/01 03:45:24;;;;;;;1.40;1.30;;;;;;;-14.13;89.89;100615.75;5012158;28;20053;-65
2022/01/01 03:47:53;;;;;;;1.77;1.25;;;;;;;-14.11;90.95;100611.66;5012198;28;20412;-63
2022/01/01 03:50:20;;;;;;;1.40;1.30;;;;;;;-14.13;90.83;100602.41;5011980;28;20050;-64
2022/01/01 03:52:47;;;;;;;1.42;1.33;;;;;;;-14.10;91.11;100610.00;5011928;28;20063;-65
2022/01/01 03:55:14;;;;;;;;;;;;;;;-13.94;90.38;100617.38;5012386;28;20412;-69
2022/01/01 03:57:41;;;;;;;1.42;1.33;;;;;;;-13.97;90.64;100622.25;5012032;28;19921;-64
2022/01/01 04:00:11;;;;;;;1.45;1.35;;;;;;;-14.13;90.76;100620.75;5012263;28;20046;-64
2022/01/01 04:02:38;;;;;;;1.10;1.10;;;;;;;-14.09;90.66;100626.75;5012093;28;20054;-65
2022/01/01 04:05:07;;;;;;;1.40;1.30;;;;;;;-14.02;90.68;100631.22;5012036;28;20050;-64
2022/01/01 04:07:34;;;;;;;2.95;1.50;;;;;;;-14.10;90.40;100633.41;5013564;28;20519;-64
2022/01/01 04:10:01;;;;;;;1.38;1.27;;;;;;;-14.27;90.94;100642.66;5015374;28;20400;-64
2022/01/01 04:12:28;;;;;;;1.00;1.00;;;;;;;-14.06;90.95;100636.88;5015666;28;20046;-64
2022/01/01 04:14:57;;;;;;;1.38;1.20;;;;;;;-14.14;90.83;100650.69;5015580;28;20049;-68
2022/01/01 04:17:24;;;;;;;1.45;1.40;;;;;;;-14.13;90.60;100639.91;5015129;28;20060;-64
2022/01/01 04:19:51;;;;;;;1.30;1.20;;;;;;;-14.06;90.37;100649.38;5015277;28;20492;-69
2022/01/01 04:22:19;;;;;;;1.50;1.40;;;;;;;-14.17;91.11;100653.06;5015065;28;20061;-67
2022/01/01 04:24:46;;;;;;;1.65;1.55;;;;;;;-14.23;90.62;100657.78;5015332;28;20049;-65
2022/01/01 04:27:13;;;;;;;4.28;1.33;;;;;;;-14.29;90.73;100658.38;5015227;28;20053;-65
2022/01/01 04:29:41;;;;;;;1.65;1.55;;;;;;;-14.27;90.88;100661.81;5015548;28;20046;-65
2022/01/01 04:32:09;;;;;;;1.10;1.10;;;;;;;-14.25;91.39;100662.75;5015160;28;20097;-64
2022/01/01 04:34:36;;;;;;;2.05;1.73;;;;;;;-14.23;90.34;100670.28;5014967;28;20061;-64
2022/01/01 04:37:11;;;;;;;1.30;1.30;;;;;;;-14.20;90.83;100670.41;5015398;28;20049;-64
2022/01/01 04:39:41;;;;;;;1.20;1.15;;;;;;;-14.18;90.72;100684.69;5015139;28;20097;-65
2022/01/01 04:42:08;;;;;;;2.33;1.60;;;;;;;-14.13;90.80;100679.91;5014705;28;20060;-69
2022/01/01 04:44:35;;;;;;;1.25;1.25;;;;;;;-13.99;90.29;100693.84;5014605;28;20045;-64
2022/01/01 04:47:02;;;;;;;3.88;1.63;;;;;;;-14.00;90.14;100691.28;5014584;28;20046;-64
2022/01/01 04:49:29;;;;;;;1.73;1.50;;;;;;;-14.08;90.55;100699.31;5014744;28;20054;-65
2022/01/01 04:51:56;;;;;;;2.78;2.40;;;;;;;-14.17;90.96;100706.41;5014965;28;20045;-64
2022/01/01 04:54:23;;;;;;;1.50;1.40;;;;;;;-14.20;91.21;100713.78;5014632;28;20056;-65
2022/01/01 04:56:51;;;;;;;3.17;1.35;;;;;;;-14.39;90.95;100706.25;5014437;28;20053;-64
2022/01/01 04:59:18;;;;;;;1.77;1.67;;;;;;;-14.45;91.81;100704.34;5014658;28;20042;-64
2022/01/01 05:01:45;;;;;;;1.25;1.23;;;;;;;-14.54;92.03;100704.84;5014395;28;20054;-64
2022/01/01 05:04:12;;;;;;;1.17;1.17;;;;;;;-14.64;92.43;100717.69;5014781;28;20041;-64
2022/01/01 05:06:41;;;;;;;1.75;1.40;;;;;;;-14.50;90.45;100711.63;5014802;28;20053;-69
2022/01/01 05:09:08;;;;;;;1.30;1.20;;;;;;;-14.52;91.32;100702.34;5014347;28;20100;-64
2022/01/01 05:11:35;;;;;;;3.53;1.95;;;;;;;-14.62;91.61;100711.09;5014543;28;20516;-64
2022/01/01 05:14:04;;;;;;;1.15;1.15;;;;;;;-14.45;91.36;100716.84;5014182;28;20041;-64
2022/01/01 05:16:31;;;;;;;3.60;1.85;;;;;;;-14.68;91.49;100718.31;5014393;28;20057;-66
2022/01/01 05:18:57;;;;;;;1.92;1.80;;;;;;;-14.71;91.51;100729.03;5013842;28;20046;-65
2022/01/01 05:21:24;;;;;;;2.22;2.03;;;;;;;-14.50;90.77;100721.63;5013872;28;20512;-64
2022/01/01 05:23:51;;;;;;;4.78;2.95;;;;;;;-14.65;90.91;100723.47;5013983;28;20481;-65
2022/01/01 05:26:18;;;;;;;1.25;1.15;;;;;;;-14.75;91.38;100732.16;5013936;28;20477;-68
2022/01/01 05:28:48;;;;;;;1.52;1.40;;;;;;;-14.81;92.09;100736.88;5013935;28;20484;-64
2022/01/01 05:31:19;;;;;;;1.15;1.15;;;;;;;-14.58;91.98;100732.94;5013794;28;20053;-67
2022/01/01 05:33:46;;;;;;;1.48;1.38;;;;;;;-14.83;92.05;100730.09;5013779;28;20088;-67
2022/01/01 05:36:13;;;;;;;1.50;1.40;;;;;;;-14.79;91.96;100731.97;5014106;28;20065;-69
2022/01/01 05:38:39;;;;;;;2.33;1.52;;;;;;;-14.53;91.12;100735.66;5014227;28;20060;-70
2022/01/01 05:41:06;;;;;;;3.00;1.90;;;;;;;-14.67;91.57;100742.50;5013697;28;20050;-64
2022/01/01 05:43:33;;;;;;;2.15;1.95;;;;;;;-14.60;92.23;100741.16;5013626;28;20054;-64
2022/01/01 05:46:00;;;;;;;4.55;1.67;;;;;;;-14.73;92.14;100738.09;5014012;28;20046;-70
2022/01/01 05:48:29;;;;;;;1.30;1.13;;;;;;;-14.73;91.77;100747.22;5013681;28;20049;-70
2022/01/01 05:50:56;;;;;;;1.88;1.50;;;;;;;-14.64;91.46;100741.78;5013503;28;20052;-70
2022/01/01 05:53:22;;;;;;;1.45;1.35;;;;;;;-14.76;91.83;100744.59;5013533;28;20460;-69
2022/01/01 05:55:50;;;;;;;1.58;1.45;;;;;;;-14.87;92.49;100744.09;5013496;28;20072;-69
2022/01/01 05:58:18;;;;;;;4.85;1.77;;;;;;;-14.96;91.63;100749.50;5013334;28;20056;-70
2022/01/01 06:00:45;;;;;;;1.83;1.73;;;;;;;-14.98;92.40;100760.19;5013663;28;20050;-70
2022/01/01 06:03:11;;;;;;;2.10;1.40;;;;;;;-14.90;92.99;100753.91;5013579;28;20046;-70
2022/01/01 06:05:40;;;;;;;1.75;1.50;;;;;;;-14.88;92.43;100754.84;5013378;28;20048;-69
2022/01/01 06:08:07;;;;;;;1.77;1.50;;;;;;;-14.85;92.94;100769.13;5013113;28;20416;-70
2022/01/01 06:10:33;;;;;;;2.90;2.03;;;;;;;-14.79;93.06;100761.94;5013338;28;20072;-70
2022/01/01 06:13:00;;;;;;;1.48;1.33;;;;;;;-14.83;92.64;100758.44;5013613;28;20050;-69
2022/01/01 06:15:27;;;;;;;1.52;1.33;;;;;;;-14.73;91.94;100765.56;5013137;28;20048;-70
2022/01/01 06:17:55;;;;;;;1.67;1.58;;;;;;;-14.80;92.05;100768.56;5013156;28;20049;-70
2022/01/01 06:20:22;;;;;;;1.73;1.63;;;;;;;-14.78;92.59;100786.97;5013138;28;20484;-70
2022/01/01 06:22:50;;;;;;;0.93;0.93;;;;;;;-14.61;91.67;100786.94;5012900;28;20149;-69
2022/01/01 06:25:17;;;;;;;1.42;1.33;;;;;;;-14.65;91.16;100802.56;5013001;28;20046;-70
2022/01/01 06:27:44;;;;;;;;;;;;;;;-14.84;92.34;100796.69;5013298;28;20049;-70
2022/01/01 06:30:12;;;;;;;2.22;1.60;;;;;;;-14.70;91.59;100799.81;5012177;28;19929;-70
2022/01/01 06:32:38;;;;;;;3.08;1.80;;;;;;;-14.75;91.81;100803.75;5012656;28;20076;-66
2022/01/01 06:35:06;;;;;;;1.42;1.33;;;;;;;-14.75;92.19;100806.25;5013054;28;20061;-70
2022/01/01 06:37:33;;;;;;;1.50;1.23;;;;;;;-14.66;92.45;100811.69;5025240;22;20050;-75
2022/01/01 06:40:01;;;;;;;1.73;1.50;;;;;;;-14.65;91.56;100817.53;5012771;28;20060;-75
2022/01/01 06:42:28;;;;;;;3.15;1.70;;;;;;;-14.45;91.91;100813.44;5012886;28;20784;-75
2022/01/01 06:44:55;;;;;;;1.67;1.42;;;;;;;-14.39;91.50;100817.06;5012909;28;20050;-75
2022/01/01 06:47:22;;;;;;;1.23;1.20;;;;;;;-14.31;91.02;100823.28;5012486;28;20046;-75
2022/01/01 06:49:49;;;;;;;2.97;1.60;;;;;;;-14.19;90.55;100827.16;5012539;28;20050;-75
2022/01/01 06:52:16;;;;;;;1.48;1.38;;;;;;;-14.27;90.64;100842.66;5012557;28;20046;-75
2022/01/01 06:54:43;;;;;;;5.03;1.40;;;;;;;-14.16;90.76;100852.28;5012456;28;20053;-74
2022/01/01 06:57:11;;;;;;;2.38;1.58;;;;;;;-14.03;90.21;100862.06;5012590;28;20056;-74
2022/01/01 06:59:38;;;;;;;1.48;1.38;;;;;;;-14.24;90.05;100858.56;5012415;28;20418;-74
2022/01/01 07:02:05;;;;;;;1.58;1.48;;;;;;;-14.26;91.15;100866.84;5012491;28;20057;-74
2022/01/01 07:04:31;;;;;;;2.25;1.40;;;;;;;-14.24;90.76;100871.94;5012443;28;20053;-74
2022/01/01 07:06:58;;;;;;;1.50;1.25;;;;;;;-14.18;91.37;100864.69;5012278;28;20046;-74
2022/01/01 07:09:25;;;;;;;1.00;1.00;;;;;;;-14.14;91.08;100870.72;5012296;28;20053;-74
2022/01/01 07:11:52;;;;;;;1.45;1.35;;;;;;;-14.17;90.70;100880.59;5012310;28;20050;-74
2022/01/01 07:14:21;;;;;;;1.02;1.02;;;;;;;-14.04;90.52;100881.22;5012399;28;20535;-74
2022/01/01 07:16:49;;;;;;;1.27;1.27;;;;;;;-14.16;90.88;100887.28;5012489;28;20097;-74
2022/01/01 07:19:16;;;;;;;1.60;1.50;;;;;;;-14.12;90.75;100899.16;5012207;28;20096;-75
2022/01/01 07:21:42;;;;;;;1.30;1.30;;;;;;;-13.98;90.10;100892.28;5012250;28;20045;-74
2022/01/01 07:24:09;;;;;;;1.55;1.45;;;;;;;-14.07;89.98;100890.22;5012407;28;20053;-75
2022/01/01 07:26:36;;;;;;;1.40;1.35;;;;;;;-14.20;90.48;100898.78;5012259;28;20054;-74
2022/01/01 07:29:03;;;;;;;1.00;1.00;;;;;;;-14.11;90.23;100896.72;5012255;28;20072;-74
2022/01/01 07:31:31;;;;;;;4.53;1.17;;;;;;;-14.15;90.66;100893.97;5012137;28;20056;-75
2022/01/01 07:33:58;;;;;;;1.40;1.30;;;;;;;-14.21;91.11;100896.22;5011973;28;20050;-74
2022/01/01 07:36:25;;;;;;;1.70;1.60;;;;;;;-14.07;90.54;100902.72;5012239;28;20393;-75
2022/01/01 07:38:52;;;;;;;1.70;1.60;;;;;;;-14.18;90.45;100926.34;5012457;28;20049;-74
2022/01/01 07:41:19;;;;;;;1.40;1.30;;;;;;;-14.26;90.75;100926.84;5014142;28;20172;-75
2022/01/01 07:43:46;;;;;;;0.90;0.90;;;;;;;-14.20;90.50;100920.41;5015762;28;20050;-74
2022/01/01 07:46:13;;;;;;;1.55;1.45;;;;;;;-14.30;90.59;100922.50;5015938;28;20049;-74
2022/01/01 07:48:41;;;;;;;2.28;1.63;;;;;;;-14.28;89.97;100920.06;5015951;28;20395;-74
2022/01/01 07:51:08;;;;;;;3.50;2.10;;;;;;;-14.42;91.01;100941.91;5016383;28;20380;-74
2022/01/01 07:53:35;;;;;;;2.00;1.73;;;;;;;-14.38;90.60;100942.88;5015992;28;20060;-74
2022/01/01 07:56:02;;;;;;;2.75;1.63;;;;;;;-14.42;90.34;100941.91;5015695;28;20065;-74
2022/01/01 07:58:31;;;;;;;1.40;1.30;;;;;;;-14.49;90.65;100952.38;5015796;28;20046;-75
2022/01/01 08:00:58;;;;;;;1.30;1.30;;;;;;;-14.44;90.68;100952.59;5015680;28;20050;-75
2022/01/01 08:03:25;;;;;;;1.48;1.38;;;;;;;-14.46;90.52;100970.03;5015862;28;20495;-75
2022/01/01 08:05:53;;;;;;;;;;;;;;;-14.44;90.74;100970.09;5016358;28;20076;-75
2022/01/01 08:08:20;;;;;;;1.63;1.52;;;;;;;-14.50;90.66;100963.16;5015775;28;19921;-74
2022/01/01 08:10:47;;;;;;;1.58;1.25;;;;;;;-14.50;90.38;100964.00;5015596;28;20056;-74
2022/01/01 08:13:22;;;;;;;2.30;1.63;;;;;;;-14.52;90.72;100968.06;5015422;28;20042;-74
2022/01/01 08:15:49;;;;;;;2.03;1.88;;;;;;;-14.49;90.21;100974.84;5015262;28;20046;-74
2022/01/01 08:18:16;;;;;;;2.28;2.17;;;;;;;-14.50;90.69;100969.00;5015078;28;20096;-75
2022/01/01 08:20:43;;;;;;;6.57;1.75;;;;;;;-14.45;90.51;100964.25;5015302;28;20049;-74
2022/01/01 08:23:11;;;;;;;2.13;1.80;;;;;;;-14.49;90.06;100972.34;5015204;28;20061;-74
2022/01/01 08:25:39;;;;;;;2.10;1.90;;;;;;;-14.53;90.56;100978.91;5015272;28;20053;-75
2022/01/01 08:28:07;;;;;;;2.10;1.90;;;;;;;-14.62;91.33;100978.41;5014968;28;20050;-75
2022/01/01 08:30:34;;;;;;;2.20;1.77;;;;;;;-14.68;91.00;100984.78;5015219;28;20046;-75
2022/01/01 08:33:02;;;;;;;;;;;;;;;-14.56;91.56;100992.88;5015755;28;20046;-75
2022/01/01 08:35:29;;;;;;;2.13;1.92;;;;;;;-14.61;91.59;100994.28;5015086;28;20249;-74
2022/01/01 08:37:56;;;;;;;1.67;1.58;;;;;;;-14.59;91.89;100986.09;5026365;22;20050;-68
2022/01/01 08:40:25;;;;;;;;;;;;;;;-14.45;91.36;100993.38;5015513;28;20068;-69
2022/01/01 08:42:52;;;;;;;1.70;1.60;;;;;;;-14.38;90.40;100991.25;5014963;28;19929;-69
2022/01/01 08:45:19;;;;;;;3.08;1.42;;;;;;;-14.26;90.58;100999.34;5014886;28;20053;-65
2022/01/01 08:47:46;;;;;;;1.58;1.48;;;;;;;-14.20;90.52;100997.91;5014575;28;20401;-64
2022/01/01 08:50:14;;;;;;;1.63;1.48;;;;;;;-14.13;90.65;101004.94;5014898;28;20046;-68
2022/01/01 08:52:41;;;;;;;1.65;1.35;;;;;;;-14.20;90.77;101003.81;5013821;28;20057;-69
2022/01/01 08:55:09;;;;;;;2.15;1.85;;;;;;;-14.17;90.88;101008.09;5014475;28;20053;-69
2022/01/01 08:57:37;;;;;;;2.53;1.92;;;;;;;-14.24;90.79;101016.06;5014550;28;20050;-69
2022/01/01 09:00:06;;;;;;;1.90;1.80;;;;;;;-14.18;90.84;101014.72;5014527;28;20061;-69
2022/01/01 09:02:34;;;;;;;2.72;2.53;;;;;;;-14.13;90.93;101007.44;5014443;28;20042;-68
2022/01/01 09:05:00;;;;;;;;;;;;;;;-14.19;90.88;101013.00;5014793;28;20046;-68
2022/01/01 09:07:29;;;;;;;1.50;1.40;;;;;;;-14.16;90.99;101020.66;5014600;28;19928;-68
2022/01/01 09:09:56;;;;;;;1.85;1.50;;;;;;;-14.12;90.95;101026.69;5014477;28;20443;-68
2022/01/01 09:12:23;;;;;;;;;;;;;;;-14.07;91.52;101043.63;5014716;28;20208;-69
2022/01/01 09:14:51;;;;;;;2.80;1.80;;;;;;;-13.94;90.98;101037.56;5014333;28;19928;-69
2022/01/01 09:17:18;;;;;;;1.80;1.70;;;;;;;-14.00;90.63;101036.41;5014150;28;20077;-69
2022/01/01 09:19:45;;;;;;;;;;;;;;;-13.97;90.93;101036.53;5014659;28;20050;-69
2022/01/01 09:22:12;;;;;;;2.55;2.05;;;;;;;-14.03;91.39;101039.59;5013966;28;19921;-69
2022/01/01 09:24:39;;;;;;;1.77;1.67;;;;;;;-13.89;91.22;101041.16;5014333;28;20050;-69
2022/01/01 09:27:06;;;;;;;1.63;1.52;;;;;;;-13.87;90.35;101039.59;5014216;28;20061;-68
2022/01/01 09:29:33;;;;;;;2.22;1.90;;;;;;;-13.79;90.70;101046.56;5013974;28;20054;-69
2022/01/01 09:32:03;;;;;;;3.28;2.00;;;;;;;-13.78;90.92;101048.31;5014002;28;20130;-69
2022/01/01 09:34:30;;;;;;;2.78;2.10;;;;;;;-13.79;90.56;101046.56;5013853;28;20141;-68
2022/01/01 09:36:57;;;;;;;2.03;1.77;;;;;;;-13.85;90.66;101048.00;5013914;28;20050;-70
2022/01/01 09:39:25;;;;;;;2.20;2.00;;;;;;;-13.86;90.87;101050.44;5013951;28;20107;-70
2022/01/01 09:41:51;;;;;;;1.70;1.60;;;;;;;-13.72;90.74;101059.44;5013962;28;20045;-69
2022/01/01 09:44:20;;;;;;;1.60;1.50;;;;;;;-13.71;90.68;101056.19;5013661;28;20049;-67
2022/01/01 09:46:50;;;;;;;6.25;1.58;;;;;;;-13.63;90.59;101071.56;5013580;28;20512;-69
2022/01/01 09:49:20;;;;;;;1.20;1.13;;;;;;;-13.62;90.27;101066.59;5013512;28;20503;-69
2022/01/01 09:51:47;;;;;;;1.83;1.40;;;;;;;-13.59;90.12;101058.38;5013749;28;20046;-70
2022/01/01 09:54:14;;;;;;;1.92;1.80;;;;;;;-13.73;90.69;101067.75;5013753;28;20049;-69
2022/01/01 09:56:41;;;;;;;2.58;2.03;;;;;;;-13.69;90.46;101063.75;5013487;28;20052;-68
2022/01/01 09:59:08;;;;;;;1.15;1.10;;;;;;;-13.61;90.25;101059.97;5013028;28;20390;-69
2022/01/01 10:01:35;;;;;;;3.78;2.10;;;;;;;-13.64;90.53;101062.31;5013319;28;20437;-68
2022/01/01 10:04:11;;;;;;;1.77;1.67;;;;;;;-13.56;90.53;101065.19;5012944;28;20120;-69
2022/01/01 10:06:40;;;;;;;1.38;1.27;;;;;;;-13.60;90.16;101067.53;5013191;28;20050;-69
2022/01/01 10:09:08;;;;;;;2.10;1.83;;;;;;;-13.57;90.47;101069.34;5013124;28;20046;-69
2022/01/01 10:11:36;;;;;;;2.53;2.25;;;;;;;-13.54;90.50;101063.63;5013265;28;20112;-69
2022/01/01 10:14:06;;;;;;;1.63;1.52;;;;;;;-13.47;90.51;101068.13;5013093;28;20050;-68
2022/01/01 10:16:39;;;;;;;2.00;1.80;;;;;;;-13.44;90.67;101073.28;5013218;28;20498;-69
2022/01/01 10:19:05;;;;;;;1.95;1.65;;;;;;;-13.50;90.91;101073.84;5012958;28;20049;-70
2022/01/01 10:21:39;;;;;;;1.80;1.70;;;;;;;-13.50;90.75;101075.50;5013019;28;20053;-65
2022/01/01 10:24:13;;;;;;;1.45;1.35;;;;;;;-13.47;91.26;101074.00;5012856;28;20088;-70
2022/01/01 10:29:27;;;;;;;5.38;2.72;;;;;;;-13.45;90.39;101087.44;5012788;28;20519;-70
2022/01/01 10:31:58;;;;;;;4.25;2.60;;;;;;;-13.34;90.26;101087.09;5012866;28;20059;-68
2022/01/01 10:34:27;;;;;;;2.70;2.50;;;;;;;-13.20;89.89;101083.56;5012676;28;20052;-68
2022/01/01 10:36:56;;;;;;;2.38;1.77;;;;;;;-13.36;89.53;101089.50;5012695;28;20053;-68
2022/01/01 10:39:24;;;;;;;2.83;1.80;;;;;;;-13.31;89.64;101094.72;5012943;28;20493;-68
2022/01/01 10:41:53;;;;;;;2.95;2.10;;;;;;;-13.27;89.09;101097.47;5012913;28;20053;-68
2022/01/01 10:44:27;;;;;;;2.33;2.05;;;;;;;-13.47;89.45;101100.66;5012872;28;20061;-68
2022/01/01 10:46:54;;;;;;;3.83;2.33;;;;;;;-13.54;90.00;101101.16;5012485;28;20552;-68
2022/01/01 10:52:18;;;;;;;2.42;2.13;;;;;;;-13.49;89.82;101109.75;5003308;28;20046;-68
2022/01/01 10:54:52;;;;;;;2.25;2.05;;;;;;;-13.41;89.50;101114.34;5012567;28;20050;-67
2022/01/01 10:57:27;;;;;;;2.00;1.88;;;;;;;-13.43;89.55;101110.06;5012521;28;20049;-68
2022/01/01 11:00:10;;;;;;;2.42;1.95;;;;;;;-13.44;89.72;101119.19;5012592;28;20049;-68
2022/01/01 11:02:38;;;;;;;2.50;2.05;;;;;;;-13.50;90.23;101128.06;5012267;28;20050;-68
2022/01/01 11:05:07;;;;;;;2.40;2.20;;;;;;;-13.22;89.39;101120.19;5012552;28;20099;-65
2022/01/01 11:07:35;;;;;;;3.00;2.20;;;;;;;-13.16;89.38;101111.28;5012426;28;20057;-68
2022/01/01 11:10:04;;;;;;;2.05;1.70;;;;;;;-13.26;89.83;101115.84;5012537;28;20050;-64
2022/01/01 11:12:31;;;;;;;3.03;2.20;;;;;;;-13.19;89.90;101116.16;5012372;28;20042;-67
2022/01/01 11:15:01;;;;;;;3.25;2.08;;;;;;;-13.38;90.67;101136.16;5012290;28;20504;-63
2022/01/01 11:17:28;;;;;;;2.28;1.55;;;;;;;-13.25;90.53;101135.94;5015918;28;20400;-63
2022/01/01 11:19:56;;;;;;;1.75;1.65;;;;;;;-13.30;90.95;101139.88;5016438;28;20405;-65
2022/01/01 11:22:23;;;;;;;3.38;1.92;;;;;;;-13.32;91.16;101151.47;5016490;28;20050;-63
2022/01/01 11:24:51;;;;;;;1.63;1.52;;;;;;;-13.19;90.84;101146.22;5016373;28;20408;-63
2022/01/01 11:27:21;;;;;;;2.78;1.60;;;;;;;-13.23;90.49;101148.50;5016482;28;20050;-69